sensor_id;sensor_type;location;lat;lon;timestamp;P1;durP1;ratioP1;P2;durP2;ratioP2
33066;SDS011;19428;49.024;8.366;2024-02-21T00:00:46;0.57;;;0.57;;
33066;SDS011;19428;49.024;8.366;2024-02-21T00:03:12;0.30;;;0.30;;
33066;SDS011;19428;49.024;8.366;2024-02-21T00:05:38;0.30;;;0.30;;
33066;SDS011;19428;49.024;8.366;2024-02-21T00:08:03;0.95;;;0.95;;
33066;SDS011;19428;49.024;8.366;2024-02-21T00:10:29;0.30;;;0.30;;
33066;SDS011;19428;49.024;8.366;2024-02-21T00:12:57;0.30;;;0.30;;
33066;SDS011;19428;49.024;8.366;2024-02-21T00:15:24;0.30;;;0.30;;
33066;SDS011;19428;49.024;8.366;2024-02-21T00:17:49;0.55;;;0.55;;
33066;SDS011;19428;49.024;8.366;2024-02-21T00:20:15;0.45;;;0.45;;
33066;SDS011;19428;49.024;8.366;2024-02-21T00:22:40;0.30;;;0.30;;
33066;SDS011;19428;49.024;8.366;2024-02-21T00:25:06;0.35;;;0.35;;
33066;SDS011;19428;49.024;8.366;2024-02-21T00:27:33;0.30;;;0.30;;
33066;SDS011;19428;49.024;8.366;2024-02-21T00:29:58;2.17;;;2.08;;
33066;SDS011;19428;49.024;8.366;2024-02-21T00:32:24;0.30;;;0.30;;
33066;SDS011;19428;49.024;8.366;2024-02-21T00:34:49;0.40;;;0.40;;
33066;SDS011;19428;49.024;8.366;2024-02-21T00:37:15;0.28;;;0.28;;
33066;SDS011;19428;49.024;8.366;2024-02-21T00:39:41;0.30;;;0.30;;
33066;SDS011;19428;49.024;8.366;2024-02-21T00:42:07;0.30;;;0.30;;
33066;SDS011;19428;49.024;8.366;2024-02-21T00:44:33;0.35;;;0.35;;
33066;SDS011;19428;49.024;8.366;2024-02-21T00:46:58;0.30;;;0.30;;
33066;SDS011;19428;49.024;8.366;2024-02-21T00:49:24;0.40;;;0.40;;
33066;SDS011;19428;49.024;8.366;2024-02-21T00:51:49;0.30;;;0.30;;
33066;SDS011;19428;49.024;8.366;2024-02-21T00:54:15;0.30;;;0.30;;
33066;SDS011;19428;49.024;8.366;2024-02-21T00:56:41;0.35;;;0.35;;
33066;SDS011;19428;49.024;8.366;2024-02-21T00:59:07;0.30;;;0.30;;
33066;SDS011;19428;49.024;8.366;2024-02-21T01:01:33;0.40;;;0.40;;
33066;SDS011;19428;49.024;8.366;2024-02-21T01:03:58;0.47;;;0.47;;
33066;SDS011;19428;49.024;8.366;2024-02-21T01:06:25;0.60;;;0.60;;
33066;SDS011;19428;49.024;8.366;2024-02-21T01:08:50;0.35;;;0.35;;
33066;SDS011;19428;49.024;8.366;2024-02-21T01:11:16;0.52;;;0.52;;
33066;SDS011;19428;49.024;8.366;2024-02-21T01:13:42;0.57;;;0.57;;
33066;SDS011;19428;49.024;8.366;2024-02-21T01:16:09;0.30;;;0.30;;
33066;SDS011;19428;49.024;8.366;2024-02-21T01:18:34;0.20;;;0.20;;
33066;SDS011;19428;49.024;8.366;2024-02-21T01:21:02;0.15;;;0.15;;
33066;SDS011;19428;49.024;8.366;2024-02-21T01:23:31;0.20;;;0.20;;
33066;SDS011;19428;49.024;8.366;2024-02-21T01:26:00;0.43;;;0.43;;
33066;SDS011;19428;49.024;8.366;2024-02-21T01:28:26;0.20;;;0.20;;
33066;SDS011;19428;49.024;8.366;2024-02-21T01:30:51;0.20;;;0.20;;
33066;SDS011;19428;49.024;8.366;2024-02-21T01:33:17;0.38;;;0.38;;
33066;SDS011;19428;49.024;8.366;2024-02-21T01:35:44;0.20;;;0.20;;
33066;SDS011;19428;49.024;8.366;2024-02-21T01:38:09;0.32;;;0.32;;
33066;SDS011;19428;49.024;8.366;2024-02-21T01:40:35;0.20;;;0.20;;
33066;SDS011;19428;49.024;8.366;2024-02-21T01:43:02;0.10;;;0.10;;
33066;SDS011;19428;49.024;8.366;2024-02-21T01:45:28;0.20;;;0.20;;
33066;SDS011;19428;49.024;8.366;2024-02-21T01:47:53;0.38;;;0.38;;
33066;SDS011;19428;49.024;8.366;2024-02-21T01:50:19;1.48;;;1.40;;
33066;SDS011;19428;49.024;8.366;2024-02-21T01:52:47;1.38;;;1.27;;
33066;SDS011;19428;49.024;8.366;2024-02-21T01:55:15;0.20;;;0.20;;
33066;SDS011;19428;49.024;8.366;2024-02-21T01:57:42;0.20;;;0.20;;
33066;SDS011;19428;49.024;8.366;2024-02-21T02:00:10;0.20;;;0.20;;
33066;SDS011;19428;49.024;8.366;2024-02-21T02:02:38;0.20;;;0.20;;
33066;SDS011;19428;49.024;8.366;2024-02-21T02:05:05;0.20;;;0.20;;
33066;SDS011;19428;49.024;8.366;2024-02-21T02:07:32;0.10;;;0.10;;
33066;SDS011;19428;49.024;8.366;2024-02-21T02:09:58;0.20;;;0.20;;
33066;SDS011;19428;49.024;8.366;2024-02-21T02:12:24;0.25;;;0.25;;
33066;SDS011;19428;49.024;8.366;2024-02-21T02:14:59;0.20;;;0.20;;
33066;SDS011;19428;49.024;8.366;2024-02-21T02:19:51;0.17;;;0.17;;
33066;SDS011;19428;49.024;8.366;2024-02-21T02:22:19;0.10;;;0.10;;
33066;SDS011;19428;49.024;8.366;2024-02-21T02:24:48;0.13;;;0.13;;
33066;SDS011;19428;49.024;8.366;2024-02-21T02:27:14;0.10;;;0.10;;
33066;SDS011;19428;49.024;8.366;2024-02-21T02:29:40;0.20;;;0.20;;
33066;SDS011;19428;49.024;8.366;2024-02-21T02:32:05;0.10;;;0.10;;
33066;SDS011;19428;49.024;8.366;2024-02-21T02:34:31;0.17;;;0.17;;
33066;SDS011;19428;49.024;8.366;2024-02-21T02:36:57;0.10;;;0.10;;
33066;SDS011;19428;49.024;8.366;2024-02-21T02:39:22;0.10;;;0.10;;
33066;SDS011;19428;49.024;8.366;2024-02-21T02:41:48;0.10;;;0.10;;
33066;SDS011;19428;49.024;8.366;2024-02-21T02:44:13;0.20;;;0.20;;
33066;SDS011;19428;49.024;8.366;2024-02-21T02:46:42;1.40;;;1.40;;
33066;SDS011;19428;49.024;8.366;2024-02-21T02:49:08;0.20;;;0.20;;
33066;SDS011;19428;49.024;8.366;2024-02-21T02:51:34;0.20;;;0.20;;
33066;SDS011;19428;49.024;8.366;2024-02-21T02:53:59;0.10;;;0.10;;
33066;SDS011;19428;49.024;8.366;2024-02-21T02:56:25;0.17;;;0.17;;
33066;SDS011;19428;49.024;8.366;2024-02-21T02:58:50;0.10;;;0.10;;
33066;SDS011;19428;49.024;8.366;2024-02-21T03:01:16;0.10;;;0.10;;
33066;SDS011;19428;49.024;8.366;2024-02-21T03:03:42;0.10;;;0.10;;
33066;SDS011;19428;49.024;8.366;2024-02-21T03:06:07;0.10;;;0.10;;
33066;SDS011;19428;49.024;8.366;2024-02-21T03:08:33;0.13;;;0.13;;
33066;SDS011;19428;49.024;8.366;2024-02-21T03:10:59;0.30;;;0.30;;
33066;SDS011;19428;49.024;8.366;2024-02-21T03:13:25;0.10;;;0.10;;
33066;SDS011;19428;49.024;8.366;2024-02-21T03:15:51;0.93;;;0.93;;
33066;SDS011;19428;49.024;8.366;2024-02-21T03:18:16;0.10;;;0.10;;
33066;SDS011;19428;49.024;8.366;2024-02-21T03:20:42;0.10;;;0.10;;
33066;SDS011;19428;49.024;8.366;2024-02-21T03:23:07;0.75;;;0.75;;
33066;SDS011;19428;49.024;8.366;2024-02-21T03:25:33;0.10;;;0.10;;
33066;SDS011;19428;49.024;8.366;2024-02-21T03:27:59;0.10;;;0.10;;
33066;SDS011;19428;49.024;8.366;2024-02-21T03:30:24;0.50;;;0.45;;
33066;SDS011;19428;49.024;8.366;2024-02-21T03:32:50;0.73;;;0.73;;
33066;SDS011;19428;49.024;8.366;2024-02-21T03:35:16;0.10;;;0.10;;
33066;SDS011;19428;49.024;8.366;2024-02-21T03:37:41;8.85;;;2.25;;
33066;SDS011;19428;49.024;8.366;2024-02-21T03:40:09;0.40;;;0.40;;
33066;SDS011;19428;49.024;8.366;2024-02-21T03:42:35;0.10;;;0.10;;
33066;SDS011;19428;49.024;8.366;2024-02-21T03:45:02;0.10;;;0.10;;
33066;SDS011;19428;49.024;8.366;2024-02-21T03:47:28;0.10;;;0.10;;
33066;SDS011;19428;49.024;8.366;2024-02-21T03:49:54;0.20;;;0.20;;
33066;SDS011;19428;49.024;8.366;2024-02-21T03:52:19;0.20;;;0.20;;
33066;SDS011;19428;49.024;8.366;2024-02-21T03:54:45;0.10;;;0.10;;
33066;SDS011;19428;49.024;8.366;2024-02-21T03:57:11;0.47;;;0.47;;
33066;SDS011;19428;49.024;8.366;2024-02-21T03:59:36;0.10;;;0.10;;
33066;SDS011;19428;49.024;8.366;2024-02-21T04:02:05;0.28;;;0.28;;
33066;SDS011;19428;49.024;8.366;2024-02-21T04:04:33;0.43;;;0.43;;
33066;SDS011;19428;49.024;8.366;2024-02-21T04:06:59;0.10;;;0.10;;
33066;SDS011;19428;49.024;8.366;2024-02-21T04:09:25;0.10;;;0.10;;
33066;SDS011;19428;49.024;8.366;2024-02-21T04:11:50;0.10;;;0.10;;
33066;SDS011;19428;49.024;8.366;2024-02-21T04:14:17;0.10;;;0.10;;
33066;SDS011;19428;49.024;8.366;2024-02-21T04:16:42;0.10;;;0.10;;
33066;SDS011;19428;49.024;8.366;2024-02-21T04:19:08;0.40;;;0.40;;
33066;SDS011;19428;49.024;8.366;2024-02-21T04:21:34;0.22;;;0.22;;
33066;SDS011;19428;49.024;8.366;2024-02-21T04:24:00;0.10;;;0.10;;
33066;SDS011;19428;49.024;8.366;2024-02-21T04:26:27;0.10;;;0.10;;
33066;SDS011;19428;49.024;8.366;2024-02-21T04:28:52;0.10;;;0.10;;
33066;SDS011;19428;49.024;8.366;2024-02-21T04:31:18;0.10;;;0.10;;
33066;SDS011;19428;49.024;8.366;2024-02-21T04:33:43;0.95;;;0.95;;
33066;SDS011;19428;49.024;8.366;2024-02-21T04:36:09;0.10;;;0.10;;
33066;SDS011;19428;49.024;8.366;2024-02-21T04:38:35;0.10;;;0.10;;
33066;SDS011;19428;49.024;8.366;2024-02-21T04:41:00;0.10;;;0.10;;
33066;SDS011;19428;49.024;8.366;2024-02-21T04:43:26;0.10;;;0.10;;
33066;SDS011;19428;49.024;8.366;2024-02-21T04:45:52;0.10;;;0.10;;
33066;SDS011;19428;49.024;8.366;2024-02-21T04:48:18;0.20;;;0.20;;
33066;SDS011;19428;49.024;8.366;2024-02-21T04:50:44;0.10;;;0.10;;
33066;SDS011;19428;49.024;8.366;2024-02-21T04:53:10;0.10;;;0.10;;
33066;SDS011;19428;49.024;8.366;2024-02-21T04:55:35;0.75;;;0.55;;
33066;SDS011;19428;49.024;8.366;2024-02-21T04:58:01;0.10;;;0.10;;
33066;SDS011;19428;49.024;8.366;2024-02-21T05:00:27;1.17;;;1.17;;
33066;SDS011;19428;49.024;8.366;2024-02-21T05:02:53;0.10;;;0.10;;
33066;SDS011;19428;49.024;8.366;2024-02-21T05:05:18;3.75;;;1.40;;
33066;SDS011;19428;49.024;8.366;2024-02-21T05:07:44;0.10;;;0.10;;
33066;SDS011;19428;49.024;8.366;2024-02-21T05:10:10;0.10;;;0.10;;
33066;SDS011;19428;49.024;8.366;2024-02-21T05:12:36;0.10;;;0.10;;
33066;SDS011;19428;49.024;8.366;2024-02-21T05:15:03;0.10;;;0.10;;
33066;SDS011;19428;49.024;8.366;2024-02-21T05:17:29;0.10;;;0.10;;
33066;SDS011;19428;49.024;8.366;2024-02-21T05:19:54;0.10;;;0.10;;
33066;SDS011;19428;49.024;8.366;2024-02-21T05:22:20;0.30;;;0.30;;
33066;SDS011;19428;49.024;8.366;2024-02-21T05:24:45;0.10;;;0.10;;
33066;SDS011;19428;49.024;8.366;2024-02-21T05:27:11;31.95;;;3.03;;
33066;SDS011;19428;49.024;8.366;2024-02-21T05:29:37;0.10;;;0.10;;
33066;SDS011;19428;49.024;8.366;2024-02-21T05:32:02;0.10;;;0.10;;
33066;SDS011;19428;49.024;8.366;2024-02-21T05:34:28;0.10;;;0.10;;
33066;SDS011;19428;49.024;8.366;2024-02-21T05:36:54;0.10;;;0.10;;
33066;SDS011;19428;49.024;8.366;2024-02-21T05:39:19;0.10;;;0.10;;
33066;SDS011;19428;49.024;8.366;2024-02-21T05:41:47;0.10;;;0.10;;
33066;SDS011;19428;49.024;8.366;2024-02-21T05:44:13;0.10;;;0.10;;
33066;SDS011;19428;49.024;8.366;2024-02-21T05:46:39;0.10;;;0.10;;
33066;SDS011;19428;49.024;8.366;2024-02-21T05:49:04;0.10;;;0.10;;
33066;SDS011;19428;49.024;8.366;2024-02-21T05:51:34;0.20;;;0.20;;
33066;SDS011;19428;49.024;8.366;2024-02-21T05:53:59;0.47;;;0.47;;
33066;SDS011;19428;49.024;8.366;2024-02-21T05:56:25;0.10;;;0.10;;
33066;SDS011;19428;49.024;8.366;2024-02-21T05:58:51;0.10;;;0.10;;
33066;SDS011;19428;49.024;8.366;2024-02-21T06:01:17;1.15;;;1.13;;
33066;SDS011;19428;49.024;8.366;2024-02-21T06:03:46;0.10;;;0.10;;
33066;SDS011;19428;49.024;8.366;2024-02-21T06:06:12;0.10;;;0.10;;
33066;SDS011;19428;49.024;8.366;2024-02-21T06:08:39;0.10;;;0.10;;
33066;SDS011;19428;49.024;8.366;2024-02-21T06:11:05;0.10;;;0.10;;
33066;SDS011;19428;49.024;8.366;2024-02-21T06:13:31;0.10;;;0.10;;
33066;SDS011;19428;49.024;8.366;2024-02-21T06:18:45;0.10;;;0.10;;
33066;SDS011;19428;49.024;8.366;2024-02-21T06:21:10;0.10;;;0.10;;
33066;SDS011;19428;49.024;8.366;2024-02-21T06:23:37;0.10;;;0.10;;
33066;SDS011;19428;49.024;8.366;2024-02-21T06:26:03;0.10;;;0.10;;
33066;SDS011;19428;49.024;8.366;2024-02-21T06:28:28;0.10;;;0.10;;
33066;SDS011;19428;49.024;8.366;2024-02-21T06:30:54;0.10;;;0.10;;
33066;SDS011;19428;49.024;8.366;2024-02-21T06:33:19;0.10;;;0.10;;
33066;SDS011;19428;49.024;8.366;2024-02-21T06:35:49;0.10;;;0.10;;
33066;SDS011;19428;49.024;8.366;2024-02-21T06:38:17;0.10;;;0.10;;
33066;SDS011;19428;49.024;8.366;2024-02-21T06:40:44;0.10;;;0.10;;
33066;SDS011;19428;49.024;8.366;2024-02-21T06:43:14;0.10;;;0.10;;
33066;SDS011;19428;49.024;8.366;2024-02-21T06:45:41;2.95;;;1.17;;
33066;SDS011;19428;49.024;8.366;2024-02-21T06:48:07;0.08;;;0.08;;
33066;SDS011;19428;49.024;8.366;2024-02-21T06:50:33;0.10;;;0.10;;
33066;SDS011;19428;49.024;8.366;2024-02-21T06:52:58;0.10;;;0.10;;
33066;SDS011;19428;49.024;8.366;2024-02-21T06:55:24;0.10;;;0.10;;
33066;SDS011;19428;49.024;8.366;2024-02-21T06:57:49;0.10;;;0.10;;
33066;SDS011;19428;49.024;8.366;2024-02-21T07:00:15;2.17;;;2.17;;
33066;SDS011;19428;49.024;8.366;2024-02-21T07:02:41;0.50;;;0.50;;
33066;SDS011;19428;49.024;8.366;2024-02-21T07:05:07;0.10;;;0.10;;
33066;SDS011;19428;49.024;8.366;2024-02-21T07:07:32;0.35;;;0.35;;
33066;SDS011;19428;49.024;8.366;2024-02-21T07:10:00;0.10;;;0.10;;
33066;SDS011;19428;49.024;8.366;2024-02-21T07:12:26;0.10;;;0.10;;
33066;SDS011;19428;49.024;8.366;2024-02-21T07:14:51;0.15;;;0.15;;
33066;SDS011;19428;49.024;8.366;2024-02-21T07:17:17;0.20;;;0.20;;
33066;SDS011;19428;49.024;8.366;2024-02-21T07:19:42;0.13;;;0.13;;
33066;SDS011;19428;49.024;8.366;2024-02-21T07:22:08;1.05;;;1.05;;
33066;SDS011;19428;49.024;8.366;2024-02-21T07:24:34;0.10;;;0.10;;
33066;SDS011;19428;49.024;8.366;2024-02-21T07:26:59;0.10;;;0.10;;
33066;SDS011;19428;49.024;8.366;2024-02-21T07:29:29;0.10;;;0.10;;
33066;SDS011;19428;49.024;8.366;2024-02-21T07:31:55;0.13;;;0.13;;
33066;SDS011;19428;49.024;8.366;2024-02-21T07:34:21;0.15;;;0.15;;
33066;SDS011;19428;49.024;8.366;2024-02-21T07:36:47;3.03;;;1.25;;
33066;SDS011;19428;49.024;8.366;2024-02-21T07:39:12;0.10;;;0.10;;
33066;SDS011;19428;49.024;8.366;2024-02-21T07:41:38;0.10;;;0.10;;
33066;SDS011;19428;49.024;8.366;2024-02-21T07:44:05;3.47;;;1.23;;
33066;SDS011;19428;49.024;8.366;2024-02-21T07:46:30;30.98;;;29.63;;
33066;SDS011;19428;49.024;8.366;2024-02-21T07:48:56;37.95;;;36.35;;
33066;SDS011;19428;49.024;8.366;2024-02-21T07:51:21;40.67;;;38.83;;
33066;SDS011;19428;49.024;8.366;2024-02-21T07:53:47;52.90;;;50.42;;
33066;SDS011;19428;49.024;8.366;2024-02-21T07:56:13;44.78;;;42.83;;
33066;SDS011;19428;49.024;8.366;2024-02-21T07:58:40;3.42;;;3.33;;
33066;SDS011;19428;49.024;8.366;2024-02-21T08:01:06;0.10;;;0.10;;
33066;SDS011;19428;49.024;8.366;2024-02-21T08:03:32;0.10;;;0.10;;
33066;SDS011;19428;49.024;8.366;2024-02-21T08:05:58;0.10;;;0.10;;
33066;SDS011;19428;49.024;8.366;2024-02-21T08:08:23;0.10;;;0.10;;
33066;SDS011;19428;49.024;8.366;2024-02-21T08:10:49;0.10;;;0.10;;
33066;SDS011;19428;49.024;8.366;2024-02-21T08:13:15;0.10;;;0.10;;
33066;SDS011;19428;49.024;8.366;2024-02-21T08:15:41;0.30;;;0.30;;
33066;SDS011;19428;49.024;8.366;2024-02-21T08:18:07;0.20;;;0.20;;
33066;SDS011;19428;49.024;8.366;2024-02-21T08:20:33;0.10;;;0.10;;
33066;SDS011;19428;49.024;8.366;2024-02-21T08:22:58;0.10;;;0.10;;
33066;SDS011;19428;49.024;8.366;2024-02-21T08:25:24;0.20;;;0.20;;
33066;SDS011;19428;49.024;8.366;2024-02-21T08:27:49;0.10;;;0.10;;
33066;SDS011;19428;49.024;8.366;2024-02-21T08:30:16;0.60;;;0.60;;
33066;SDS011;19428;49.024;8.366;2024-02-21T08:32:42;0.47;;;0.47;;
33066;SDS011;19428;49.024;8.366;2024-02-21T08:35:08;0.10;;;0.10;;
33066;SDS011;19428;49.024;8.366;2024-02-21T08:37:33;0.10;;;0.10;;
33066;SDS011;19428;49.024;8.366;2024-02-21T08:39:59;0.30;;;0.30;;
33066;SDS011;19428;49.024;8.366;2024-02-21T08:42:29;0.35;;;0.35;;
33066;SDS011;19428;49.024;8.366;2024-02-21T08:44:55;0.10;;;0.10;;
33066;SDS011;19428;49.024;8.366;2024-02-21T08:47:21;0.15;;;0.15;;
33066;SDS011;19428;49.024;8.366;2024-02-21T08:49:46;0.10;;;0.10;;
33066;SDS011;19428;49.024;8.366;2024-02-21T08:52:13;0.10;;;0.10;;
33066;SDS011;19428;49.024;8.366;2024-02-21T08:54:38;0.10;;;0.10;;
33066;SDS011;19428;49.024;8.366;2024-02-21T08:57:04;0.10;;;0.10;;
33066;SDS011;19428;49.024;8.366;2024-02-21T08:59:30;14.15;;;2.67;;
33066;SDS011;19428;49.024;8.366;2024-02-21T09:01:55;0.15;;;0.15;;
33066;SDS011;19428;49.024;8.366;2024-02-21T09:04:21;0.35;;;0.35;;
33066;SDS011;19428;49.024;8.366;2024-02-21T09:06:46;0.28;;;0.28;;
33066;SDS011;19428;49.024;8.366;2024-02-21T09:09:12;0.20;;;0.20;;
33066;SDS011;19428;49.024;8.366;2024-02-21T09:11:38;0.20;;;0.20;;
33066;SDS011;19428;49.024;8.366;2024-02-21T09:14:04;0.40;;;0.40;;
33066;SDS011;19428;49.024;8.366;2024-02-21T09:16:31;0.30;;;0.30;;
33066;SDS011;19428;49.024;8.366;2024-02-21T09:18:57;0.30;;;0.30;;
33066;SDS011;19428;49.024;8.366;2024-02-21T09:21:23;0.30;;;0.30;;
33066;SDS011;19428;49.024;8.366;2024-02-21T09:23:48;0.20;;;0.20;;
33066;SDS011;19428;49.024;8.366;2024-02-21T09:26:14;0.30;;;0.30;;
33066;SDS011;19428;49.024;8.366;2024-02-21T09:28:41;0.63;;;0.63;;
33066;SDS011;19428;49.024;8.366;2024-02-21T09:31:07;0.40;;;0.40;;
33066;SDS011;19428;49.024;8.366;2024-02-21T09:33:32;0.38;;;0.38;;
33066;SDS011;19428;49.024;8.366;2024-02-21T09:35:58;0.30;;;0.30;;
33066;SDS011;19428;49.024;8.366;2024-02-21T09:38:24;0.20;;;0.20;;
33066;SDS011;19428;49.024;8.366;2024-02-21T09:40:58;0.20;;;0.20;;
33066;SDS011;19428;49.024;8.366;2024-02-21T09:43:44;0.17;;;0.17;;
33066;SDS011;19428;49.024;8.366;2024-02-21T09:46:17;0.10;;;0.10;;
33066;SDS011;19428;49.024;8.366;2024-02-21T09:48:58;0.65;;;0.65;;
33066;SDS011;19428;49.024;8.366;2024-02-21T09:51:45;0.10;;;0.10;;
33066;SDS011;19428;49.024;8.366;2024-02-21T09:54:14;0.05;;;0.05;;
33066;SDS011;19428;49.024;8.366;2024-02-21T09:56:40;0.20;;;0.20;;
33066;SDS011;19428;49.024;8.366;2024-02-21T09:59:06;0.68;;;0.68;;
33066;SDS011;19428;49.024;8.366;2024-02-21T10:01:32;0.10;;;0.10;;
33066;SDS011;19428;49.024;8.366;2024-02-21T10:03:58;0.20;;;0.20;;
33066;SDS011;19428;49.024;8.366;2024-02-21T10:06:23;0.10;;;0.10;;
33066;SDS011;19428;49.024;8.366;2024-02-21T10:08:52;0.10;;;0.10;;
33066;SDS011;19428;49.024;8.366;2024-02-21T10:11:22;0.10;;;0.10;;
33066;SDS011;19428;49.024;8.366;2024-02-21T10:13:48;0.10;;;0.10;;
33066;SDS011;19428;49.024;8.366;2024-02-21T10:16:14;0.10;;;0.10;;
33066;SDS011;19428;49.024;8.366;2024-02-21T10:18:40;0.10;;;0.10;;
33066;SDS011;19428;49.024;8.366;2024-02-21T10:21:07;0.17;;;0.17;;
33066;SDS011;19428;49.024;8.366;2024-02-21T10:23:42;0.85;;;0.85;;
33066;SDS011;19428;49.024;8.366;2024-02-21T10:26:14;0.15;;;0.15;;
33066;SDS011;19428;49.024;8.366;2024-02-21T10:28:40;0.30;;;0.30;;
33066;SDS011;19428;49.024;8.366;2024-02-21T10:31:10;0.20;;;0.20;;
33066;SDS011;19428;49.024;8.366;2024-02-21T10:33:53;0.20;;;0.20;;
33066;SDS011;19428;49.024;8.366;2024-02-21T10:36:19;0.20;;;0.20;;
33066;SDS011;19428;49.024;8.366;2024-02-21T10:38:44;0.30;;;0.30;;
33066;SDS011;19428;49.024;8.366;2024-02-21T10:41:10;0.22;;;0.22;;
33066;SDS011;19428;49.024;8.366;2024-02-21T10:43:40;0.45;;;0.45;;
33066;SDS011;19428;49.024;8.366;2024-02-21T10:46:06;0.20;;;0.20;;
33066;SDS011;19428;49.024;8.366;2024-02-21T10:48:38;0.20;;;0.20;;
33066;SDS011;19428;49.024;8.366;2024-02-21T10:54:02;0.20;;;0.20;;
33066;SDS011;19428;49.024;8.366;2024-02-21T10:56:38;0.20;;;0.20;;
33066;SDS011;19428;49.024;8.366;2024-02-21T10:59:06;0.20;;;0.20;;
33066;SDS011;19428;49.024;8.366;2024-02-21T11:01:33;25.45;;;24.55;;
33066;SDS011;19428;49.024;8.366;2024-02-21T11:04:10;19.60;;;18.92;;
33066;SDS011;19428;49.024;8.366;2024-02-21T11:06:37;0.47;;;0.47;;
33066;SDS011;19428;49.024;8.366;2024-02-21T11:09:05;0.10;;;0.10;;
33066;SDS011;19428;49.024;8.366;2024-02-21T11:11:39;0.10;;;0.10;;
33066;SDS011;19428;49.024;8.366;2024-02-21T11:14:10;0.10;;;0.10;;
33066;SDS011;19428;49.024;8.366;2024-02-21T11:19:08;0.10;;;0.10;;
33066;SDS011;19428;49.024;8.366;2024-02-21T11:21:55;0.10;;;0.10;;
33066;SDS011;19428;49.024;8.366;2024-02-21T11:24:31;0.10;;;0.10;;
33066;SDS011;19428;49.024;8.366;2024-02-21T11:29:47;0.10;;;0.10;;
33066;SDS011;19428;49.024;8.366;2024-02-21T11:32:20;0.68;;;0.68;;
33066;SDS011;19428;49.024;8.366;2024-02-21T11:34:59;0.00;;;0.00;;
33066;SDS011;19428;49.024;8.366;2024-02-21T11:37:32;0.05;;;0.05;;
33066;SDS011;19428;49.024;8.366;2024-02-21T11:39:59;0.00;;;0.00;;
33066;SDS011;19428;49.024;8.366;2024-02-21T11:42:25;0.05;;;0.05;;
33066;SDS011;19428;49.024;8.366;2024-02-21T11:44:52;0.00;;;0.00;;
33066;SDS011;19428;49.024;8.366;2024-02-21T11:47:21;0.00;;;0.00;;
33066;SDS011;19428;49.024;8.366;2024-02-21T11:49:48;0.05;;;0.05;;
33066;SDS011;19428;49.024;8.366;2024-02-21T11:52:19;0.00;;;0.00;;
33066;SDS011;19428;49.024;8.366;2024-02-21T11:54:50;0.00;;;0.00;;
33066;SDS011;19428;49.024;8.366;2024-02-21T11:57:16;0.00;;;0.00;;
33066;SDS011;19428;49.024;8.366;2024-02-21T11:59:43;0.35;;;0.35;;
33066;SDS011;19428;49.024;8.366;2024-02-21T12:02:10;0.00;;;0.00;;
33066;SDS011;19428;49.024;8.366;2024-02-21T12:04:36;0.00;;;0.00;;
33066;SDS011;19428;49.024;8.366;2024-02-21T12:07:01;0.00;;;0.00;;
33066;SDS011;19428;49.024;8.366;2024-02-21T12:09:29;0.00;;;0.00;;
33066;SDS011;19428;49.024;8.366;2024-02-21T12:12:04;0.00;;;0.00;;
33066;SDS011;19428;49.024;8.366;2024-02-21T12:14:34;0.00;;;0.00;;
33066;SDS011;19428;49.024;8.366;2024-02-21T12:17:00;0.00;;;0.00;;
33066;SDS011;19428;49.024;8.366;2024-02-21T12:19:29;0.10;;;0.10;;
33066;SDS011;19428;49.024;8.366;2024-02-21T12:21:56;0.00;;;0.00;;
33066;SDS011;19428;49.024;8.366;2024-02-21T12:24:24;0.00;;;0.00;;
33066;SDS011;19428;49.024;8.366;2024-02-21T12:26:51;0.00;;;0.00;;
33066;SDS011;19428;49.024;8.366;2024-02-21T12:29:17;0.00;;;0.00;;
33066;SDS011;19428;49.024;8.366;2024-02-21T12:31:43;0.00;;;0.00;;
33066;SDS011;19428;49.024;8.366;2024-02-21T12:34:10;0.45;;;0.45;;
33066;SDS011;19428;49.024;8.366;2024-02-21T12:36:36;0.00;;;0.00;;
33066;SDS011;19428;49.024;8.366;2024-02-21T12:39:09;0.00;;;0.00;;
33066;SDS011;19428;49.024;8.366;2024-02-21T12:41:38;0.00;;;0.00;;
33066;SDS011;19428;49.024;8.366;2024-02-21T12:44:04;0.00;;;0.00;;
33066;SDS011;19428;49.024;8.366;2024-02-21T12:46:36;0.00;;;0.00;;
33066;SDS011;19428;49.024;8.366;2024-02-21T12:49:02;0.00;;;0.00;;
33066;SDS011;19428;49.024;8.366;2024-02-21T12:51:31;0.00;;;0.00;;
33066;SDS011;19428;49.024;8.366;2024-02-21T12:53:57;0.00;;;0.00;;
33066;SDS011;19428;49.024;8.366;2024-02-21T12:56:23;0.00;;;0.00;;
33066;SDS011;19428;49.024;8.366;2024-02-21T12:58:51;0.00;;;0.00;;
33066;SDS011;19428;49.024;8.366;2024-02-21T13:01:16;0.00;;;0.00;;
33066;SDS011;19428;49.024;8.366;2024-02-21T13:03:42;0.00;;;0.00;;
33066;SDS011;19428;49.024;8.366;2024-02-21T13:06:07;0.00;;;0.00;;
33066;SDS011;19428;49.024;8.366;2024-02-21T13:08:35;0.00;;;0.00;;
33066;SDS011;19428;49.024;8.366;2024-02-21T13:11:01;0.00;;;0.00;;
33066;SDS011;19428;49.024;8.366;2024-02-21T13:13:27;0.00;;;0.00;;
33066;SDS011;19428;49.024;8.366;2024-02-21T13:15:53;0.00;;;0.00;;
33066;SDS011;19428;49.024;8.366;2024-02-21T13:18:18;0.00;;;0.00;;
33066;SDS011;19428;49.024;8.366;2024-02-21T13:20:44;4.65;;;3.20;;
33066;SDS011;19428;49.024;8.366;2024-02-21T13:23:09;0.00;;;0.00;;
33066;SDS011;19428;49.024;8.366;2024-02-21T13:25:35;0.00;;;0.00;;
33066;SDS011;19428;49.024;8.366;2024-02-21T13:28:00;1.38;;;1.27;;
33066;SDS011;19428;49.024;8.366;2024-02-21T13:30:28;0.10;;;0.10;;
33066;SDS011;19428;49.024;8.366;2024-02-21T13:32:54;0.05;;;0.05;;
33066;SDS011;19428;49.024;8.366;2024-02-21T13:35:22;0.00;;;0.00;;
33066;SDS011;19428;49.024;8.366;2024-02-21T13:37:47;0.00;;;0.00;;
33066;SDS011;19428;49.024;8.366;2024-02-21T13:40:14;0.00;;;0.00;;
33066;SDS011;19428;49.024;8.366;2024-02-21T13:42:40;0.00;;;0.00;;
33066;SDS011;19428;49.024;8.366;2024-02-21T13:45:05;0.00;;;0.00;;
33066;SDS011;19428;49.024;8.366;2024-02-21T13:47:32;0.00;;;0.00;;
33066;SDS011;19428;49.024;8.366;2024-02-21T13:49:58;0.00;;;0.00;;
33066;SDS011;19428;49.024;8.366;2024-02-21T13:52:24;0.00;;;0.00;;
33066;SDS011;19428;49.024;8.366;2024-02-21T13:54:51;0.10;;;0.10;;
33066;SDS011;19428;49.024;8.366;2024-02-21T13:57:17;0.00;;;0.00;;
33066;SDS011;19428;49.024;8.366;2024-02-21T13:59:43;0.00;;;0.00;;
33066;SDS011;19428;49.024;8.366;2024-02-21T14:02:09;0.00;;;0.00;;
33066;SDS011;19428;49.024;8.366;2024-02-21T14:04:34;0.00;;;0.00;;
33066;SDS011;19428;49.024;8.366;2024-02-21T14:07:00;0.00;;;0.00;;
33066;SDS011;19428;49.024;8.366;2024-02-21T14:09:27;0.00;;;0.00;;
33066;SDS011;19428;49.024;8.366;2024-02-21T14:11:54;0.00;;;0.00;;
33066;SDS011;19428;49.024;8.366;2024-02-21T14:14:20;0.00;;;0.00;;
33066;SDS011;19428;49.024;8.366;2024-02-21T14:16:46;0.00;;;0.00;;
33066;SDS011;19428;49.024;8.366;2024-02-21T14:19:13;0.00;;;0.00;;
33066;SDS011;19428;49.024;8.366;2024-02-21T14:21:39;0.00;;;0.00;;
33066;SDS011;19428;49.024;8.366;2024-02-21T14:24:05;0.00;;;0.00;;
33066;SDS011;19428;49.024;8.366;2024-02-21T14:26:31;0.00;;;0.00;;
33066;SDS011;19428;49.024;8.366;2024-02-21T14:28:57;0.00;;;0.00;;
33066;SDS011;19428;49.024;8.366;2024-02-21T14:31:23;0.03;;;0.03;;
33066;SDS011;19428;49.024;8.366;2024-02-21T14:33:49;0.00;;;0.00;;
33066;SDS011;19428;49.024;8.366;2024-02-21T14:36:14;0.00;;;0.00;;
33066;SDS011;19428;49.024;8.366;2024-02-21T14:38:43;0.00;;;0.00;;
33066;SDS011;19428;49.024;8.366;2024-02-21T14:41:09;0.08;;;0.08;;
33066;SDS011;19428;49.024;8.366;2024-02-21T14:43:38;1.13;;;1.02;;
33066;SDS011;19428;49.024;8.366;2024-02-21T14:46:04;0.00;;;0.00;;
33066;SDS011;19428;49.024;8.366;2024-02-21T14:48:31;0.13;;;0.13;;
33066;SDS011;19428;49.024;8.366;2024-02-21T14:51:00;0.00;;;0.00;;
33066;SDS011;19428;49.024;8.366;2024-02-21T14:53:26;0.00;;;0.00;;
33066;SDS011;19428;49.024;8.366;2024-02-21T14:55:51;0.00;;;0.00;;
33066;SDS011;19428;49.024;8.366;2024-02-21T14:58:17;0.00;;;0.00;;